createdAt,value
2022-08-25T00:01:55.519Z,26.98
2022-08-25T00:07:03.142Z,26.93
2022-08-25T00:12:07.442Z,26.89
2022-08-25T00:17:10.489Z,26.88
2022-08-25T00:22:14.683Z,26.84
2022-08-25T00:27:17.951Z,26.82
2022-08-25T00:32:20.737Z,26.79
2022-08-25T00:37:24.849Z,26.76
2022-08-25T00:42:27.807Z,26.72
2022-08-25T00:47:31.359Z,26.69
2022-08-25T00:52:39.306Z,26.65
2022-08-25T00:57:46.895Z,26.62
2022-08-25T01:02:50.612Z,26.60
2022-08-25T01:07:58.540Z,26.55
2022-08-25T01:13:06.665Z,26.52
2022-08-25T01:18:17.435Z,26.49
2022-08-25T01:23:22.764Z,26.47
2022-08-25T01:28:25.654Z,26.44
2022-08-25T01:33:28.693Z,26.41
2022-08-25T01:38:32.768Z,26.37
2022-08-25T01:43:38.950Z,26.35
2022-08-25T01:48:41.813Z,26.32
2022-08-25T01:53:45.954Z,26.30
2022-08-25T01:58:49.959Z,26.28
2022-08-25T02:03:55.400Z,26.25
2022-08-25T02:09:01.235Z,26.21
2022-08-25T02:14:04.360Z,26.19
2022-08-25T02:19:09.496Z,26.16
2022-08-25T02:24:14.202Z,26.15
2022-08-25T02:29:17.655Z,26.14
2022-08-25T02:34:20.556Z,26.11
2022-08-25T02:39:24.741Z,26.08
2022-08-25T02:44:27.542Z,26.06
2022-08-25T02:49:32.076Z,26.04
2022-08-25T02:54:36.228Z,26.03
2022-08-25T02:59:39.281Z,26.02
2022-08-25T03:04:42.292Z,26.01
2022-08-25T03:09:47.005Z,25.98
2022-08-25T03:14:49.847Z,25.99
2022-08-25T03:19:52.987Z,25.96
2022-08-25T03:25:20.977Z,25.95
2022-08-25T03:30:27.286Z,25.92
2022-08-25T03:35:30.970Z,25.88
2022-08-25T03:40:35.408Z,25.87
2022-08-25T03:45:41.660Z,25.83
2022-08-25T03:50:51.410Z,25.77
2022-08-25T03:55:57.291Z,25.71
2022-08-25T04:01:00.868Z,25.39
2022-08-25T04:06:04.544Z,24.81
2022-08-25T04:11:10.885Z,24.59
2022-08-25T04:16:16.599Z,24.51
2022-08-25T04:21:21.244Z,24.41
2022-08-25T04:26:29.088Z,24.20
2022-08-25T04:31:33.332Z,24.11
2022-08-25T04:36:36.935Z,24.00
2022-08-25T04:41:41.080Z,23.89
2022-08-25T04:46:44.549Z,23.75
2022-08-25T04:51:47.919Z,23.69
2022-08-25T04:56:54.461Z,23.62
2022-08-25T05:02:02.326Z,23.70
2022-08-25T05:07:05.964Z,23.66
2022-08-25T05:12:10.591Z,23.64
2022-08-25T05:17:15.366Z,23.66
2022-08-25T05:22:18.115Z,23.66
2022-08-25T05:27:22.315Z,23.67
2022-08-25T05:32:25.101Z,23.65
2022-08-25T05:37:27.877Z,23.64
2022-08-25T05:42:32.101Z,23.68
2022-08-25T05:47:35.528Z,23.67
2022-08-25T05:52:38.805Z,23.71
2022-08-25T05:57:43.436Z,23.70
2022-08-25T06:02:48.381Z,23.86
2022-08-25T06:07:53.055Z,23.95
2022-08-25T06:12:57.550Z,24.02
2022-08-25T06:18:03.466Z,23.97
2022-08-25T06:23:06.547Z,24.14
2022-08-25T06:28:10.993Z,24.13
2022-08-25T06:33:14.706Z,24.28
2022-08-25T06:38:17.439Z,24.22
2022-08-25T06:43:22.067Z,24.37
2022-08-25T06:48:24.879Z,24.46
2022-08-25T06:53:27.857Z,24.44
2022-08-25T06:58:32.862Z,24.32
2022-08-25T07:03:35.635Z,24.45
2022-08-25T07:08:38.416Z,24.37
2022-08-25T07:13:43.445Z,24.30
2022-08-25T07:18:47.323Z,24.53
2022-08-25T07:23:50.150Z,24.61
2022-08-25T07:28:54.509Z,24.60
2022-08-25T07:34:14.922Z,24.51
2022-08-25T07:39:21.894Z,24.69
2022-08-25T07:44:28.016Z,24.76
2022-08-25T07:49:36.206Z,24.68
2022-08-25T07:54:42.845Z,24.72
2022-08-25T07:59:51.271Z,24.70
2022-08-25T08:04:54.753Z,24.66
2022-08-25T08:10:32.804Z,24.84
2022-08-25T08:15:22.543Z,24.85
2022-08-25T08:20:25.917Z,24.85
2022-08-25T08:25:28.992Z,24.98
2022-08-25T08:30:33.403Z,25.10
2022-08-25T08:35:37.697Z,25.11
2022-08-25T08:41:13.781Z,25.18
2022-08-25T08:46:19.122Z,25.18
2022-08-25T08:51:25.311Z,25.23
2022-08-25T08:56:45.453Z,25.21
2022-08-25T09:01:59.071Z,25.29
2022-08-25T09:07:07.649Z,25.32
2022-08-25T09:12:19.237Z,25.33
2022-08-25T09:17:39.361Z,25.40
2022-08-25T09:22:53.213Z,25.45
2022-08-25T09:28:18.152Z,25.51
2022-08-25T09:33:24.746Z,25.52
2022-08-25T09:38:29.559Z,25.59
2022-08-25T09:43:35.013Z,25.59
2022-08-25T09:48:55.554Z,25.65
2022-08-25T09:54:10.417Z,25.69
2022-08-25T09:59:34.082Z,25.85
2022-08-25T10:04:40.875Z,25.89
2022-08-25T10:09:44.717Z,25.91
2022-08-25T10:14:48.975Z,25.91
2022-08-25T10:20:13.688Z,25.97
2022-08-25T10:25:19.928Z,25.99
2022-08-25T10:30:31.803Z,26.02
2022-08-25T10:35:49.420Z,26.05
2022-08-25T10:40:57.746Z,26.07
2022-08-25T10:46:13.497Z,26.09
2022-08-25T10:51:32.736Z,26.12
2022-08-25T10:56:40.882Z,26.16
2022-08-25T11:01:56.117Z,26.11
2022-08-25T11:07:06.687Z,26.11
2022-08-25T11:12:15.949Z,26.14
2022-08-25T11:17:24.902Z,26.17
2022-08-25T11:22:38.325Z,26.19
2022-08-25T11:27:49.451Z,26.20
2022-08-25T11:32:54.357Z,26.22
2022-08-25T11:38:23.185Z,26.28
2022-08-25T11:43:45.763Z,26.30
2022-08-25T11:48:59.918Z,26.31
2022-08-25T11:54:24.917Z,26.33
2022-08-25T12:00:03.654Z,26.30
2022-08-25T12:05:12.625Z,26.31
2022-08-25T12:10:21.720Z,26.34
2022-08-25T12:15:29.057Z,26.33
2022-08-25T12:21:19.600Z,26.34
2022-08-25T12:26:37.534Z,26.37
2022-08-25T12:31:55.916Z,26.38
2022-08-25T12:37:06.697Z,26.40
2022-08-25T12:42:26.208Z,26.42
2022-08-25T12:47:33.799Z,26.41
2022-08-25T12:52:39.362Z,26.42
2022-08-25T12:57:47.347Z,26.37
2022-08-25T13:03:15.908Z,26.34
2022-08-25T13:08:52.100Z,26.33
2022-08-25T13:14:06.518Z,26.31
2022-08-25T13:19:20.151Z,26.34
2022-08-25T13:24:27.715Z,26.41
2022-08-25T13:29:37.569Z,26.43
2022-08-25T13:34:44.777Z,26.47
2022-08-25T13:39:56.601Z,26.49
2022-08-25T13:45:04.989Z,26.51
2022-08-25T13:50:23.348Z,26.55
2022-08-25T13:55:50.401Z,26.58
2022-08-25T14:01:23.530Z,26.63
2022-08-25T14:06:31.971Z,26.67
2022-08-25T14:11:44.703Z,26.68
2022-08-25T14:16:54.195Z,26.71
2022-08-25T14:22:02.144Z,26.74
2022-08-25T14:27:06.131Z,26.78
2022-08-25T14:32:10.798Z,26.82
2022-08-25T14:37:17.093Z,26.81
2022-08-25T14:42:20.111Z,26.83
2022-08-25T14:47:24.671Z,26.91
2022-08-25T14:52:30.365Z,26.91
2022-08-25T14:57:33.094Z,26.99
2022-08-25T15:02:42.238Z,27.04
2022-08-25T15:08:02.142Z,27.10
2022-08-25T15:13:06.154Z,27.20
2022-08-25T15:18:10.606Z,27.23
2022-08-25T15:23:14.363Z,27.31
2022-08-25T15:28:20.782Z,27.35
2022-08-25T15:33:26.807Z,27.43
2022-08-25T15:38:30.271Z,27.51
2022-08-25T15:43:33.033Z,27.59
2022-08-25T15:48:37.225Z,27.59
2022-08-25T15:53:40.259Z,27.59
2022-08-25T15:58:49.816Z,27.61
2022-08-25T16:03:54.780Z,27.65
2022-08-25T16:08:57.631Z,27.73
2022-08-25T16:14:00.452Z,27.82
2022-08-25T16:19:05.027Z,27.84
2022-08-25T16:24:08.977Z,27.86
2022-08-25T16:29:14.482Z,27.87
2022-08-25T16:34:18.627Z,27.82
2022-08-25T16:39:21.870Z,27.84
2022-08-25T16:44:27.080Z,27.81
2022-08-25T16:49:31.914Z,27.78
2022-08-25T16:54:52.574Z,27.74
2022-08-25T16:59:55.873Z,27.78
2022-08-25T17:05:00.637Z,27.79
2022-08-25T17:10:03.645Z,27.82
2022-08-25T17:15:07.931Z,27.86
2022-08-25T17:20:12.353Z,27.85
2022-08-25T17:25:15.372Z,27.84
2022-08-25T17:30:18.787Z,27.87
2022-08-25T17:35:23.050Z,27.82
2022-08-25T17:40:26.632Z,27.88
2022-08-25T17:45:30.061Z,27.86
2022-08-25T17:50:36.104Z,27.92
2022-08-25T17:55:39.741Z,27.97
2022-08-25T18:00:47.040Z,27.95
2022-08-25T18:05:51.210Z,27.94
2022-08-25T18:10:54.213Z,27.95
2022-08-25T18:15:57.697Z,27.99
2022-08-25T18:21:01.889Z,28.01
2022-08-25T18:26:06.685Z,28.05
2022-08-25T18:31:10.104Z,28.05
2022-08-25T18:36:14.563Z,28.06
2022-08-25T18:41:17.405Z,28.08
2022-08-25T18:46:22.646Z,28.07
2022-08-25T18:51:27.261Z,28.10
2022-08-25T18:56:30.948Z,28.07
2022-08-25T19:01:33.927Z,28.09
2022-08-25T19:06:38.364Z,28.10
2022-08-25T19:11:41.611Z,28.12
2022-08-25T19:16:44.441Z,28.09
2022-08-25T19:21:48.612Z,28.12
2022-08-25T19:26:54.641Z,28.09
2022-08-25T19:31:58.463Z,28.10
2022-08-25T19:37:07.396Z,28.06
2022-08-25T19:42:35.154Z,28.12
2022-08-25T19:47:34.491Z,28.09
2022-08-25T19:52:39.930Z,28.02
2022-08-25T19:57:45.484Z,27.90
2022-08-25T20:02:48.788Z,27.91
2022-08-25T20:07:54.786Z,27.96
2022-08-25T20:12:57.718Z,27.88
2022-08-25T20:18:01.105Z,28.03
2022-08-25T20:23:24.796Z,27.98
2022-08-25T20:28:27.911Z,27.73
2022-08-25T20:33:31.028Z,27.87
2022-08-25T20:38:36.366Z,27.98
2022-08-25T20:43:40.785Z,28.00
2022-08-25T20:48:44.439Z,28.02
2022-08-25T20:53:48.899Z,28.03
2022-08-25T20:58:51.913Z,28.06
2022-08-25T21:03:54.718Z,28.05
2022-08-25T21:08:58.949Z,27.98
2022-08-25T21:14:03.144Z,28.01
2022-08-25T21:19:11.096Z,27.91
2022-08-25T21:24:15.625Z,28.00
2022-08-25T21:29:20.690Z,28.04
2022-08-25T21:34:23.793Z,28.05
2022-08-25T21:39:31.937Z,28.04
2022-08-25T21:44:35.093Z,28.00
2022-08-25T21:49:38.095Z,27.98
2022-08-25T21:54:42.228Z,27.94
2022-08-25T21:59:45.399Z,27.92
2022-08-25T22:04:52.832Z,27.99
2022-08-25T22:09:57.712Z,27.97
2022-08-25T22:15:00.629Z,27.94
2022-08-25T22:20:04.002Z,28.02
2022-08-25T22:25:08.890Z,27.92
2022-08-25T22:30:14.414Z,27.81
2022-08-25T22:35:17.571Z,27.85
2022-08-25T22:40:24.132Z,27.89
2022-08-25T22:45:26.975Z,27.81
2022-08-25T22:50:31.304Z,27.88
2022-08-25T22:55:43.118Z,27.86
2022-08-25T23:00:46.093Z,27.87
2022-08-25T23:05:49.681Z,27.87
2022-08-25T23:10:56.456Z,27.83
2022-08-25T23:15:59.699Z,27.85
2022-08-25T23:21:24.163Z,27.96
2022-08-25T23:26:28.599Z,27.96
2022-08-25T23:31:31.543Z,27.95
2022-08-25T23:36:34.562Z,28.06
2022-08-25T23:41:39.832Z,28.10
2022-08-25T23:46:43.306Z,28.11
2022-08-25T23:51:48.849Z,28.05
2022-08-25T23:56:53.115Z,27.98
